sensor_id;sensor_type;location;lat;lon;timestamp;P1;durP1;ratioP1;P2;durP2;ratioP2
18290;SDS011;9271;48.590;8.866;2023-02-26T00:01:53;1.47;;;1.27;;
18290;SDS011;9271;48.590;8.866;2023-02-26T00:04:22;2.37;;;1.30;;
18290;SDS011;9271;48.590;8.866;2023-02-26T00:06:48;2.57;;;1.33;;
18290;SDS011;9271;48.590;8.866;2023-02-26T00:09:19;1.80;;;1.60;;
18290;SDS011;9271;48.590;8.866;2023-02-26T00:11:47;2.77;;;1.70;;
18290;SDS011;9271;48.590;8.866;2023-02-26T00:14:14;2.30;;;1.60;;
18290;SDS011;9271;48.590;8.866;2023-02-26T00:16:43;1.63;;;1.30;;
18290;SDS011;9271;48.590;8.866;2023-02-26T00:19:12;1.40;;;1.30;;
18290;SDS011;9271;48.590;8.866;2023-02-26T00:21:39;1.70;;;1.40;;
18290;SDS011;9271;48.590;8.866;2023-02-26T00:24:06;1.40;;;1.30;;
18290;SDS011;9271;48.590;8.866;2023-02-26T00:26:33;1.67;;;1.57;;
18290;SDS011;9271;48.590;8.866;2023-02-26T00:29:00;2.00;;;1.80;;
18290;SDS011;9271;48.590;8.866;2023-02-26T00:31:28;1.43;;;1.33;;
18290;SDS011;9271;48.590;8.866;2023-02-26T00:33:56;1.60;;;1.43;;
18290;SDS011;9271;48.590;8.866;2023-02-26T00:36:25;2.20;;;1.60;;
18290;SDS011;9271;48.590;8.866;2023-02-26T00:39:01;2.57;;;1.67;;
18290;SDS011;9271;48.590;8.866;2023-02-26T00:41:34;2.20;;;1.70;;
18290;SDS011;9271;48.590;8.866;2023-02-26T00:44:02;2.10;;;1.63;;
18290;SDS011;9271;48.590;8.866;2023-02-26T00:46:34;2.37;;;1.50;;
18290;SDS011;9271;48.590;8.866;2023-02-26T00:49:06;2.13;;;1.30;;
18290;SDS011;9271;48.590;8.866;2023-02-26T00:51:41;1.87;;;1.57;;
18290;SDS011;9271;48.590;8.866;2023-02-26T00:54:16;1.50;;;1.40;;
18290;SDS011;9271;48.590;8.866;2023-02-26T00:56:45;2.73;;;1.40;;
18290;SDS011;9271;48.590;8.866;2023-02-26T00:59:12;2.07;;;1.57;;
18290;SDS011;9271;48.590;8.866;2023-02-26T01:01:39;1.43;;;1.33;;
18290;SDS011;9271;48.590;8.866;2023-02-26T01:04:07;1.40;;;1.30;;
18290;SDS011;9271;48.590;8.866;2023-02-26T01:06:36;2.00;;;1.20;;
18290;SDS011;9271;48.590;8.866;2023-02-26T01:09:08;2.10;;;1.63;;
18290;SDS011;9271;48.590;8.866;2023-02-26T01:11:40;1.47;;;1.30;;
18290;SDS011;9271;48.590;8.866;2023-02-26T01:14:08;2.00;;;1.37;;
18290;SDS011;9271;48.590;8.866;2023-02-26T01:16:36;1.00;;;1.00;;
18290;SDS011;9271;48.590;8.866;2023-02-26T01:19:13;1.10;;;1.10;;
18290;SDS011;9271;48.590;8.866;2023-02-26T01:21:45;1.53;;;1.27;;
18290;SDS011;9271;48.590;8.866;2023-02-26T01:24:15;1.43;;;1.20;;
18290;SDS011;9271;48.590;8.866;2023-02-26T01:26:45;1.60;;;1.30;;
18290;SDS011;9271;48.590;8.866;2023-02-26T01:29:14;1.17;;;1.17;;
18290;SDS011;9271;48.590;8.866;2023-02-26T01:31:41;1.77;;;1.60;;
18290;SDS011;9271;48.590;8.866;2023-02-26T01:34:17;2.57;;;1.30;;
18290;SDS011;9271;48.590;8.866;2023-02-26T01:36:49;2.37;;;1.50;;
18290;SDS011;9271;48.590;8.866;2023-02-26T01:39:22;1.40;;;1.30;;
18290;SDS011;9271;48.590;8.866;2023-02-26T01:41:54;3.27;;;1.50;;
18290;SDS011;9271;48.590;8.866;2023-02-26T01:44:25;1.47;;;1.30;;
18290;SDS011;9271;48.590;8.866;2023-02-26T01:47:01;1.50;;;1.40;;
18290;SDS011;9271;48.590;8.866;2023-02-26T01:49:37;2.60;;;1.50;;
18290;SDS011;9271;48.590;8.866;2023-02-26T01:52:04;1.33;;;1.23;;
18290;SDS011;9271;48.590;8.866;2023-02-26T01:54:32;2.50;;;1.60;;
18290;SDS011;9271;48.590;8.866;2023-02-26T01:57:01;1.67;;;1.53;;
18290;SDS011;9271;48.590;8.866;2023-02-26T01:59:31;1.73;;;1.57;;
18290;SDS011;9271;48.590;8.866;2023-02-26T02:02:00;2.53;;;1.50;;
18290;SDS011;9271;48.590;8.866;2023-02-26T02:04:29;3.73;;;1.17;;
18290;SDS011;9271;48.590;8.866;2023-02-26T02:06:59;1.40;;;1.20;;
18290;SDS011;9271;48.590;8.866;2023-02-26T02:09:26;1.30;;;1.20;;
18290;SDS011;9271;48.590;8.866;2023-02-26T02:11:59;2.70;;;1.20;;
18290;SDS011;9271;48.590;8.866;2023-02-26T02:14:36;2.20;;;1.40;;
18290;SDS011;9271;48.590;8.866;2023-02-26T02:17:09;5.13;;;1.40;;
18290;SDS011;9271;48.590;8.866;2023-02-26T02:19:54;2.67;;;1.30;;
18290;SDS011;9271;48.590;8.866;2023-02-26T02:22:49;2.00;;;1.40;;
18290;SDS011;9271;48.590;8.866;2023-02-26T02:25:34;1.63;;;1.47;;
18290;SDS011;9271;48.590;8.866;2023-02-26T02:28:19;2.17;;;1.20;;
18290;SDS011;9271;48.590;8.866;2023-02-26T02:31:01;1.40;;;1.30;;
18290;SDS011;9271;48.590;8.866;2023-02-26T02:33:33;2.27;;;1.33;;
18290;SDS011;9271;48.590;8.866;2023-02-26T02:36:06;3.00;;;1.50;;
18290;SDS011;9271;48.590;8.866;2023-02-26T02:38:38;1.30;;;1.20;;
18290;SDS011;9271;48.590;8.866;2023-02-26T02:41:13;1.60;;;1.50;;
18290;SDS011;9271;48.590;8.866;2023-02-26T02:43:44;2.23;;;1.40;;
18290;SDS011;9271;48.590;8.866;2023-02-26T02:46:14;3.97;;;1.30;;
18290;SDS011;9271;48.590;8.866;2023-02-26T02:48:46;2.53;;;1.40;;
18290;SDS011;9271;48.590;8.866;2023-02-26T02:51:20;2.63;;;1.43;;
18290;SDS011;9271;48.590;8.866;2023-02-26T02:53:50;1.83;;;1.27;;
18290;SDS011;9271;48.590;8.866;2023-02-26T02:56:22;1.60;;;1.40;;
18290;SDS011;9271;48.590;8.866;2023-02-26T02:58:52;1.53;;;1.40;;
18290;SDS011;9271;48.590;8.866;2023-02-26T03:01:24;1.70;;;1.27;;
18290;SDS011;9271;48.590;8.866;2023-02-26T03:03:54;2.00;;;1.20;;
18290;SDS011;9271;48.590;8.866;2023-02-26T03:06:25;2.07;;;1.30;;
18290;SDS011;9271;48.590;8.866;2023-02-26T03:08:51;1.40;;;1.30;;
18290;SDS011;9271;48.590;8.866;2023-02-26T03:11:19;1.73;;;1.23;;
18290;SDS011;9271;48.590;8.866;2023-02-26T03:13:47;1.73;;;1.37;;
18290;SDS011;9271;48.590;8.866;2023-02-26T03:16:19;2.53;;;1.63;;
18290;SDS011;9271;48.590;8.866;2023-02-26T03:18:58;1.23;;;1.20;;
18290;SDS011;9271;48.590;8.866;2023-02-26T03:21:30;1.30;;;1.20;;
18290;SDS011;9271;48.590;8.866;2023-02-26T03:24:05;3.90;;;1.60;;
18290;SDS011;9271;48.590;8.866;2023-02-26T03:26:39;1.17;;;1.17;;
18290;SDS011;9271;48.590;8.866;2023-02-26T03:29:11;1.43;;;1.33;;
18290;SDS011;9271;48.590;8.866;2023-02-26T03:31:45;2.20;;;1.60;;
18290;SDS011;9271;48.590;8.866;2023-02-26T03:34:18;1.60;;;1.40;;
18290;SDS011;9271;48.590;8.866;2023-02-26T03:36:52;1.50;;;1.40;;
18290;SDS011;9271;48.590;8.866;2023-02-26T03:39:22;1.63;;;1.30;;
18290;SDS011;9271;48.590;8.866;2023-02-26T03:41:53;1.63;;;1.30;;
18290;SDS011;9271;48.590;8.866;2023-02-26T03:44:24;2.53;;;1.50;;
18290;SDS011;9271;48.590;8.866;2023-02-26T03:46:57;5.13;;;1.67;;
18290;SDS011;9271;48.590;8.866;2023-02-26T03:49:29;2.83;;;1.70;;
18290;SDS011;9271;48.590;8.866;2023-02-26T03:51:58;2.47;;;1.20;;
18290;SDS011;9271;48.590;8.866;2023-02-26T03:54:27;1.50;;;1.40;;
18290;SDS011;9271;48.590;8.866;2023-02-26T03:56:56;2.03;;;1.60;;
18290;SDS011;9271;48.590;8.866;2023-02-26T03:59:23;1.70;;;1.40;;
18290;SDS011;9271;48.590;8.866;2023-02-26T04:01:50;2.47;;;1.60;;
18290;SDS011;9271;48.590;8.866;2023-02-26T04:04:23;2.30;;;1.53;;
18290;SDS011;9271;48.590;8.866;2023-02-26T04:06:53;1.70;;;1.60;;
18290;SDS011;9271;48.590;8.866;2023-02-26T04:09:20;1.80;;;1.30;;
18290;SDS011;9271;48.590;8.866;2023-02-26T04:11:48;1.40;;;1.30;;
18290;SDS011;9271;48.590;8.866;2023-02-26T04:14:16;2.20;;;1.60;;
18290;SDS011;9271;48.590;8.866;2023-02-26T04:16:43;2.87;;;1.90;;
18290;SDS011;9271;48.590;8.866;2023-02-26T04:19:11;1.63;;;1.50;;
18290;SDS011;9271;48.590;8.866;2023-02-26T04:21:39;2.97;;;1.80;;
18290;SDS011;9271;48.590;8.866;2023-02-26T04:24:06;1.60;;;1.50;;
18290;SDS011;9271;48.590;8.866;2023-02-26T04:26:32;2.40;;;1.37;;
18290;SDS011;9271;48.590;8.866;2023-02-26T04:28:59;3.30;;;1.60;;
18290;SDS011;9271;48.590;8.866;2023-02-26T04:31:26;1.80;;;1.50;;
18290;SDS011;9271;48.590;8.866;2023-02-26T04:33:52;2.17;;;1.77;;
18290;SDS011;9271;48.590;8.866;2023-02-26T04:36:19;2.53;;;1.90;;
18290;SDS011;9271;48.590;8.866;2023-02-26T04:38:47;2.30;;;1.83;;
18290;SDS011;9271;48.590;8.866;2023-02-26T04:41:13;2.17;;;1.60;;
18290;SDS011;9271;48.590;8.866;2023-02-26T04:43:40;2.87;;;1.60;;
18290;SDS011;9271;48.590;8.866;2023-02-26T04:46:07;2.73;;;1.60;;
18290;SDS011;9271;48.590;8.866;2023-02-26T04:48:33;1.77;;;1.67;;
18290;SDS011;9271;48.590;8.866;2023-02-26T04:51:00;1.97;;;1.50;;
18290;SDS011;9271;48.590;8.866;2023-02-26T04:53:26;3.10;;;1.70;;
18290;SDS011;9271;48.590;8.866;2023-02-26T04:55:54;1.97;;;1.60;;
18290;SDS011;9271;48.590;8.866;2023-02-26T04:58:21;1.60;;;1.50;;
18290;SDS011;9271;48.590;8.866;2023-02-26T05:00:48;2.20;;;1.90;;
18290;SDS011;9271;48.590;8.866;2023-02-26T05:03:15;1.73;;;1.60;;
18290;SDS011;9271;48.590;8.866;2023-02-26T05:05:42;2.07;;;1.77;;
18290;SDS011;9271;48.590;8.866;2023-02-26T05:08:09;3.07;;;1.90;;
18290;SDS011;9271;48.590;8.866;2023-02-26T05:10:36;3.17;;;1.83;;
18290;SDS011;9271;48.590;8.866;2023-02-26T05:13:04;2.17;;;1.70;;
18290;SDS011;9271;48.590;8.866;2023-02-26T05:15:31;4.23;;;2.40;;
18290;SDS011;9271;48.590;8.866;2023-02-26T05:17:58;11.07;;;6.33;;
18290;SDS011;9271;48.590;8.866;2023-02-26T05:20:25;13.27;;;6.87;;
18290;SDS011;9271;48.590;8.866;2023-02-26T05:22:51;16.77;;;9.03;;
18290;SDS011;9271;48.590;8.866;2023-02-26T05:25:18;15.37;;;9.70;;
18290;SDS011;9271;48.590;8.866;2023-02-26T05:27:45;15.00;;;9.27;;
18290;SDS011;9271;48.590;8.866;2023-02-26T05:30:13;11.23;;;7.43;;
18290;SDS011;9271;48.590;8.866;2023-02-26T05:32:41;5.87;;;4.40;;
18290;SDS011;9271;48.590;8.866;2023-02-26T05:35:08;2.93;;;2.57;;
18290;SDS011;9271;48.590;8.866;2023-02-26T05:37:35;2.50;;;2.10;;
18290;SDS011;9271;48.590;8.866;2023-02-26T05:40:02;3.40;;;1.87;;
18290;SDS011;9271;48.590;8.866;2023-02-26T05:42:29;2.20;;;1.67;;
18290;SDS011;9271;48.590;8.866;2023-02-26T05:44:56;3.23;;;1.90;;
18290;SDS011;9271;48.590;8.866;2023-02-26T05:47:24;3.97;;;2.00;;
18290;SDS011;9271;48.590;8.866;2023-02-26T05:49:51;2.50;;;1.57;;
18290;SDS011;9271;48.590;8.866;2023-02-26T05:52:17;3.10;;;2.10;;
18290;SDS011;9271;48.590;8.866;2023-02-26T05:54:44;2.67;;;1.80;;
18290;SDS011;9271;48.590;8.866;2023-02-26T05:57:11;2.70;;;1.80;;
18290;SDS011;9271;48.590;8.866;2023-02-26T05:59:37;2.73;;;1.70;;
18290;SDS011;9271;48.590;8.866;2023-02-26T06:02:04;2.40;;;1.77;;
18290;SDS011;9271;48.590;8.866;2023-02-26T06:07:00;3.03;;;1.67;;
18290;SDS011;9271;48.590;8.866;2023-02-26T06:09:27;2.10;;;2.00;;
18290;SDS011;9271;48.590;8.866;2023-02-26T06:11:54;3.40;;;1.87;;
18290;SDS011;9271;48.590;8.866;2023-02-26T06:14:20;2.20;;;1.80;;
18290;SDS011;9271;48.590;8.866;2023-02-26T06:16:47;2.60;;;1.63;;
18290;SDS011;9271;48.590;8.866;2023-02-26T06:19:13;3.63;;;1.90;;
18290;SDS011;9271;48.590;8.866;2023-02-26T06:21:41;6.13;;;2.33;;
18290;SDS011;9271;48.590;8.866;2023-02-26T06:24:08;3.20;;;1.70;;
18290;SDS011;9271;48.590;8.866;2023-02-26T06:26:35;1.67;;;1.57;;
18290;SDS011;9271;48.590;8.866;2023-02-26T06:29:01;2.07;;;1.83;;
18290;SDS011;9271;48.590;8.866;2023-02-26T06:31:28;2.37;;;1.80;;
18290;SDS011;9271;48.590;8.866;2023-02-26T06:33:55;3.87;;;2.10;;
18290;SDS011;9271;48.590;8.866;2023-02-26T06:36:21;3.90;;;1.53;;
18290;SDS011;9271;48.590;8.866;2023-02-26T06:38:49;3.27;;;1.80;;
18290;SDS011;9271;48.590;8.866;2023-02-26T06:41:16;2.67;;;2.20;;
18290;SDS011;9271;48.590;8.866;2023-02-26T06:43:43;2.13;;;1.90;;
18290;SDS011;9271;48.590;8.866;2023-02-26T06:46:09;2.57;;;2.00;;
18290;SDS011;9271;48.590;8.866;2023-02-26T06:48:36;3.13;;;2.23;;
18290;SDS011;9271;48.590;8.866;2023-02-26T06:51:03;3.40;;;2.00;;
18290;SDS011;9271;48.590;8.866;2023-02-26T06:53:30;2.23;;;1.90;;
18290;SDS011;9271;48.590;8.866;2023-02-26T06:55:57;2.87;;;2.10;;
18290;SDS011;9271;48.590;8.866;2023-02-26T06:58:24;4.67;;;2.30;;
18290;SDS011;9271;48.590;8.866;2023-02-26T07:00:51;3.47;;;2.20;;
18290;SDS011;9271;48.590;8.866;2023-02-26T07:03:17;3.17;;;2.10;;
18290;SDS011;9271;48.590;8.866;2023-02-26T07:05:44;3.00;;;2.03;;
18290;SDS011;9271;48.590;8.866;2023-02-26T07:08:11;2.53;;;2.10;;
18290;SDS011;9271;48.590;8.866;2023-02-26T07:10:38;3.93;;;2.10;;
18290;SDS011;9271;48.590;8.866;2023-02-26T07:13:07;2.53;;;2.07;;
18290;SDS011;9271;48.590;8.866;2023-02-26T07:15:34;4.83;;;2.27;;
18290;SDS011;9271;48.590;8.866;2023-02-26T07:18:00;4.87;;;2.40;;
18290;SDS011;9271;48.590;8.866;2023-02-26T07:20:27;3.33;;;2.20;;
18290;SDS011;9271;48.590;8.866;2023-02-26T07:22:54;2.00;;;1.80;;
18290;SDS011;9271;48.590;8.866;2023-02-26T07:25:21;3.90;;;2.13;;
18290;SDS011;9271;48.590;8.866;2023-02-26T07:27:48;3.83;;;2.00;;
18290;SDS011;9271;48.590;8.866;2023-02-26T07:30:16;2.70;;;1.90;;
18290;SDS011;9271;48.590;8.866;2023-02-26T07:32:43;2.13;;;1.90;;
18290;SDS011;9271;48.590;8.866;2023-02-26T07:35:10;2.17;;;1.60;;
18290;SDS011;9271;48.590;8.866;2023-02-26T07:37:37;4.27;;;2.47;;
18290;SDS011;9271;48.590;8.866;2023-02-26T07:40:04;2.60;;;1.93;;
18290;SDS011;9271;48.590;8.866;2023-02-26T07:42:31;2.53;;;1.93;;
18290;SDS011;9271;48.590;8.866;2023-02-26T07:44:58;3.43;;;2.07;;
18290;SDS011;9271;48.590;8.866;2023-02-26T07:47:26;3.37;;;1.80;;
18290;SDS011;9271;48.590;8.866;2023-02-26T07:49:54;2.30;;;1.60;;
18290;SDS011;9271;48.590;8.866;2023-02-26T07:52:21;3.17;;;1.80;;
18290;SDS011;9271;48.590;8.866;2023-02-26T07:54:47;2.87;;;1.63;;
18290;SDS011;9271;48.590;8.866;2023-02-26T07:57:14;3.10;;;1.70;;
18290;SDS011;9271;48.590;8.866;2023-02-26T07:59:41;2.43;;;1.50;;
18290;SDS011;9271;48.590;8.866;2023-02-26T08:02:08;3.77;;;1.70;;
18290;SDS011;9271;48.590;8.866;2023-02-26T08:04:37;2.33;;;1.50;;
18290;SDS011;9271;48.590;8.866;2023-02-26T08:07:05;1.90;;;1.53;;
18290;SDS011;9271;48.590;8.866;2023-02-26T08:09:31;3.37;;;2.03;;
18290;SDS011;9271;48.590;8.866;2023-02-26T08:11:58;5.70;;;2.70;;
18290;SDS011;9271;48.590;8.866;2023-02-26T08:14:25;2.90;;;1.90;;
18290;SDS011;9271;48.590;8.866;2023-02-26T08:16:51;3.53;;;1.70;;
18290;SDS011;9271;48.590;8.866;2023-02-26T08:19:18;2.73;;;1.60;;
18290;SDS011;9271;48.590;8.866;2023-02-26T08:21:46;2.40;;;1.70;;
18290;SDS011;9271;48.590;8.866;2023-02-26T08:24:13;3.33;;;1.57;;
18290;SDS011;9271;48.590;8.866;2023-02-26T08:26:39;1.80;;;1.60;;
18290;SDS011;9271;48.590;8.866;2023-02-26T08:29:06;2.63;;;1.53;;
18290;SDS011;9271;48.590;8.866;2023-02-26T08:31:33;4.60;;;1.80;;
18290;SDS011;9271;48.590;8.866;2023-02-26T08:34:00;1.90;;;1.40;;
18290;SDS011;9271;48.590;8.866;2023-02-26T08:36:28;2.40;;;1.53;;
18290;SDS011;9271;48.590;8.866;2023-02-26T08:38:56;4.93;;;1.70;;
18290;SDS011;9271;48.590;8.866;2023-02-26T08:41:22;1.97;;;1.60;;
18290;SDS011;9271;48.590;8.866;2023-02-26T08:43:51;3.10;;;1.50;;
18290;SDS011;9271;48.590;8.866;2023-02-26T08:46:18;4.37;;;1.87;;
18290;SDS011;9271;48.590;8.866;2023-02-26T08:48:44;2.70;;;1.57;;
18290;SDS011;9271;48.590;8.866;2023-02-26T08:51:11;2.37;;;1.50;;
18290;SDS011;9271;48.590;8.866;2023-02-26T08:53:38;3.20;;;1.70;;
18290;SDS011;9271;48.590;8.866;2023-02-26T08:56:07;2.37;;;1.50;;
18290;SDS011;9271;48.590;8.866;2023-02-26T08:58:33;2.77;;;1.60;;
18290;SDS011;9271;48.590;8.866;2023-02-26T09:01:00;3.27;;;1.67;;
18290;SDS011;9271;48.590;8.866;2023-02-26T09:03:27;2.10;;;1.60;;
18290;SDS011;9271;48.590;8.866;2023-02-26T09:05:53;2.20;;;1.60;;
18290;SDS011;9271;48.590;8.866;2023-02-26T09:08:20;2.97;;;2.00;;
18290;SDS011;9271;48.590;8.866;2023-02-26T09:10:47;2.70;;;1.50;;
18290;SDS011;9271;48.590;8.866;2023-02-26T09:13:15;1.80;;;1.50;;
18290;SDS011;9271;48.590;8.866;2023-02-26T09:15:42;1.57;;;1.47;;
18290;SDS011;9271;48.590;8.866;2023-02-26T09:18:09;2.67;;;1.40;;
18290;SDS011;9271;48.590;8.866;2023-02-26T09:20:39;1.47;;;1.30;;
18290;SDS011;9271;48.590;8.866;2023-02-26T09:23:06;1.80;;;1.70;;
18290;SDS011;9271;48.590;8.866;2023-02-26T09:25:33;1.90;;;1.80;;
18290;SDS011;9271;48.590;8.866;2023-02-26T09:27:59;1.73;;;1.50;;
18290;SDS011;9271;48.590;8.866;2023-02-26T09:30:27;2.97;;;1.60;;
18290;SDS011;9271;48.590;8.866;2023-02-26T09:32:54;2.40;;;1.70;;
18290;SDS011;9271;48.590;8.866;2023-02-26T09:35:21;2.67;;;1.57;;
18290;SDS011;9271;48.590;8.866;2023-02-26T09:37:48;1.67;;;1.30;;
18290;SDS011;9271;48.590;8.866;2023-02-26T09:40:19;2.73;;;1.50;;
18290;SDS011;9271;48.590;8.866;2023-02-26T09:42:54;2.73;;;1.60;;
18290;SDS011;9271;48.590;8.866;2023-02-26T09:45:32;2.90;;;1.50;;
18290;SDS011;9271;48.590;8.866;2023-02-26T09:48:03;1.90;;;1.57;;
18290;SDS011;9271;48.590;8.866;2023-02-26T09:50:33;1.53;;;1.30;;
18290;SDS011;9271;48.590;8.866;2023-02-26T09:53:06;2.63;;;1.40;;
18290;SDS011;9271;48.590;8.866;2023-02-26T09:55:41;1.97;;;1.13;;
18290;SDS011;9271;48.590;8.866;2023-02-26T09:58:10;1.90;;;1.30;;
18290;SDS011;9271;48.590;8.866;2023-02-26T10:00:46;1.50;;;1.20;;
18290;SDS011;9271;48.590;8.866;2023-02-26T10:03:24;1.70;;;1.40;;
18290;SDS011;9271;48.590;8.866;2023-02-26T10:06:11;1.67;;;1.53;;
18290;SDS011;9271;48.590;8.866;2023-02-26T10:08:45;1.40;;;1.30;;
18290;SDS011;9271;48.590;8.866;2023-02-26T10:11:22;1.20;;;1.10;;
18290;SDS011;9271;48.590;8.866;2023-02-26T10:13:55;3.03;;;1.50;;
18290;SDS011;9271;48.590;8.866;2023-02-26T10:16:29;1.40;;;1.30;;
18290;SDS011;9271;48.590;8.866;2023-02-26T10:19:01;1.30;;;1.20;;
18290;SDS011;9271;48.590;8.866;2023-02-26T10:21:33;2.23;;;1.40;;
18290;SDS011;9271;48.590;8.866;2023-02-26T10:24:05;1.57;;;1.30;;
18290;SDS011;9271;48.590;8.866;2023-02-26T10:26:38;1.77;;;1.30;;
18290;SDS011;9271;48.590;8.866;2023-02-26T10:29:10;3.17;;;2.10;;
18290;SDS011;9271;48.590;8.866;2023-02-26T10:31:51;3.00;;;1.30;;
18290;SDS011;9271;48.590;8.866;2023-02-26T10:34:25;1.60;;;1.30;;
18290;SDS011;9271;48.590;8.866;2023-02-26T10:36:57;1.30;;;1.20;;
18290;SDS011;9271;48.590;8.866;2023-02-26T10:39:31;1.43;;;1.10;;
18290;SDS011;9271;48.590;8.866;2023-02-26T10:42:04;1.23;;;1.13;;
18290;SDS011;9271;48.590;8.866;2023-02-26T10:44:39;2.20;;;1.10;;
18290;SDS011;9271;48.590;8.866;2023-02-26T10:47:16;1.80;;;1.23;;
18290;SDS011;9271;48.590;8.866;2023-02-26T10:49:52;1.50;;;1.27;;
18290;SDS011;9271;48.590;8.866;2023-02-26T10:52:20;1.40;;;1.30;;
18290;SDS011;9271;48.590;8.866;2023-02-26T10:54:55;1.30;;;1.20;;
18290;SDS011;9271;48.590;8.866;2023-02-26T10:57:33;1.20;;;1.10;;
18290;SDS011;9271;48.590;8.866;2023-02-26T11:00:03;1.93;;;1.30;;
18290;SDS011;9271;48.590;8.866;2023-02-26T11:02:35;1.40;;;1.30;;
18290;SDS011;9271;48.590;8.866;2023-02-26T11:05:04;1.57;;;1.23;;
18290;SDS011;9271;48.590;8.866;2023-02-26T11:07:32;1.93;;;1.30;;
18290;SDS011;9271;48.590;8.866;2023-02-26T11:10:10;1.47;;;1.37;;
18290;SDS011;9271;48.590;8.866;2023-02-26T11:12:40;1.80;;;1.47;;
18290;SDS011;9271;48.590;8.866;2023-02-26T11:15:11;1.30;;;1.20;;
18290;SDS011;9271;48.590;8.866;2023-02-26T11:17:40;1.33;;;1.23;;
18290;SDS011;9271;48.590;8.866;2023-02-26T11:20:12;2.17;;;1.50;;
18290;SDS011;9271;48.590;8.866;2023-02-26T11:22:44;1.77;;;1.60;;
18290;SDS011;9271;48.590;8.866;2023-02-26T11:25:13;1.50;;;1.40;;
18290;SDS011;9271;48.590;8.866;2023-02-26T11:27:42;3.43;;;1.37;;
18290;SDS011;9271;48.590;8.866;2023-02-26T11:30:14;1.73;;;1.40;;
18290;SDS011;9271;48.590;8.866;2023-02-26T11:32:44;1.90;;;1.40;;
18290;SDS011;9271;48.590;8.866;2023-02-26T11:35:14;1.40;;;1.30;;
18290;SDS011;9271;48.590;8.866;2023-02-26T11:37:45;1.73;;;1.63;;
18290;SDS011;9271;48.590;8.866;2023-02-26T11:40:15;1.93;;;1.80;;
18290;SDS011;9271;48.590;8.866;2023-02-26T11:42:46;3.60;;;1.70;;
18290;SDS011;9271;48.590;8.866;2023-02-26T11:45:16;2.37;;;1.30;;
18290;SDS011;9271;48.590;8.866;2023-02-26T11:47:46;2.33;;;1.40;;
18290;SDS011;9271;48.590;8.866;2023-02-26T11:50:16;5.03;;;1.90;;
18290;SDS011;9271;48.590;8.866;2023-02-26T11:52:47;4.27;;;1.33;;
18290;SDS011;9271;48.590;8.866;2023-02-26T11:55:21;1.47;;;1.20;;
18290;SDS011;9271;48.590;8.866;2023-02-26T11:57:53;1.50;;;1.40;;
18290;SDS011;9271;48.590;8.866;2023-02-26T12:00:23;1.93;;;1.40;;
18290;SDS011;9271;48.590;8.866;2023-02-26T12:02:54;2.97;;;1.30;;
18290;SDS011;9271;48.590;8.866;2023-02-26T12:05:25;1.43;;;1.33;;
18290;SDS011;9271;48.590;8.866;2023-02-26T12:07:52;1.23;;;1.23;;
18290;SDS011;9271;48.590;8.866;2023-02-26T12:10:21;1.00;;;0.97;;
18290;SDS011;9271;48.590;8.866;2023-02-26T12:12:56;1.77;;;1.10;;
18290;SDS011;9271;48.590;8.866;2023-02-26T12:15:33;2.73;;;1.30;;
18290;SDS011;9271;48.590;8.866;2023-02-26T12:18:13;1.57;;;1.47;;
18290;SDS011;9271;48.590;8.866;2023-02-26T12:21:04;1.37;;;1.27;;
18290;SDS011;9271;48.590;8.866;2023-02-26T12:23:59;1.20;;;1.13;;
18290;SDS011;9271;48.590;8.866;2023-02-26T12:26:38;2.47;;;1.70;;
18290;SDS011;9271;48.590;8.866;2023-02-26T12:29:14;1.30;;;1.10;;
18290;SDS011;9271;48.590;8.866;2023-02-26T12:32:08;1.63;;;1.20;;
18290;SDS011;9271;48.590;8.866;2023-02-26T12:37:49;1.70;;;1.60;;
18290;SDS011;9271;48.590;8.866;2023-02-26T12:43:14;1.50;;;1.40;;
18290;SDS011;9271;48.590;8.866;2023-02-26T12:45:50;1.50;;;1.40;;
18290;SDS011;9271;48.590;8.866;2023-02-26T12:48:33;1.20;;;1.20;;
18290;SDS011;9271;48.590;8.866;2023-02-26T12:51:16;2.07;;;1.60;;
18290;SDS011;9271;48.590;8.866;2023-02-26T12:54:02;1.40;;;1.30;;
18290;SDS011;9271;48.590;8.866;2023-02-26T12:56:46;1.50;;;1.40;;
18290;SDS011;9271;48.590;8.866;2023-02-26T12:59:28;1.27;;;1.27;;
18290;SDS011;9271;48.590;8.866;2023-02-26T13:02:14;2.30;;;2.10;;
18290;SDS011;9271;48.590;8.866;2023-02-26T13:05:18;3.10;;;2.07;;
18290;SDS011;9271;48.590;8.866;2023-02-26T13:07:58;1.40;;;1.30;;
18290;SDS011;9271;48.590;8.866;2023-02-26T13:10:38;2.03;;;1.53;;
18290;SDS011;9271;48.590;8.866;2023-02-26T13:13:17;1.20;;;1.20;;
18290;SDS011;9271;48.590;8.866;2023-02-26T13:16:02;1.60;;;1.50;;
18290;SDS011;9271;48.590;8.866;2023-02-26T13:18:42;1.70;;;1.60;;
18290;SDS011;9271;48.590;8.866;2023-02-26T13:21:17;1.30;;;1.20;;
18290;SDS011;9271;48.590;8.866;2023-02-26T13:23:49;1.13;;;1.10;;
18290;SDS011;9271;48.590;8.866;2023-02-26T13:26:18;1.00;;;1.00;;
18290;SDS011;9271;48.590;8.866;2023-02-26T13:28:48;1.23;;;0.90;;
18290;SDS011;9271;48.590;8.866;2023-02-26T13:31:20;1.40;;;1.10;;
18290;SDS011;9271;48.590;8.866;2023-02-26T13:33:50;1.10;;;1.10;;
18290;SDS011;9271;48.590;8.866;2023-02-26T13:36:18;1.47;;;1.37;;
18290;SDS011;9271;48.590;8.866;2023-02-26T13:38:54;1.60;;;1.50;;
18290;SDS011;9271;48.590;8.866;2023-02-26T13:41:32;2.87;;;1.40;;
18290;SDS011;9271;48.590;8.866;2023-02-26T13:44:10;1.30;;;1.20;;
18290;SDS011;9271;48.590;8.866;2023-02-26T13:46:51;1.17;;;1.17;;
18290;SDS011;9271;48.590;8.866;2023-02-26T13:49:41;1.17;;;1.07;;
18290;SDS011;9271;48.590;8.866;2023-02-26T13:52:23;1.20;;;1.10;;
18290;SDS011;9271;48.590;8.866;2023-02-26T13:54:52;1.70;;;1.20;;
18290;SDS011;9271;48.590;8.866;2023-02-26T13:57:25;1.27;;;1.07;;
18290;SDS011;9271;48.590;8.866;2023-02-26T14:00:00;1.60;;;1.50;;
18290;SDS011;9271;48.590;8.866;2023-02-26T14:02:44;1.57;;;1.47;;
18290;SDS011;9271;48.590;8.866;2023-02-26T14:05:32;1.30;;;1.20;;
18290;SDS011;9271;48.590;8.866;2023-02-26T14:14:24;2.23;;;1.30;;
18290;SDS011;9271;48.590;8.866;2023-02-26T14:17:18;1.30;;;1.17;;
18290;SDS011;9271;48.590;8.866;2023-02-26T14:22:50;1.23;;;1.10;;
18290;SDS011;9271;48.590;8.866;2023-02-26T14:25:20;1.20;;;1.20;;
18290;SDS011;9271;48.590;8.866;2023-02-26T14:31:04;1.10;;;1.00;;
18290;SDS011;9271;48.590;8.866;2023-02-26T14:33:36;0.90;;;0.90;;
18290;SDS011;9271;48.590;8.866;2023-02-26T14:36:07;1.47;;;1.27;;
18290;SDS011;9271;48.590;8.866;2023-02-26T14:38:46;3.10;;;1.30;;
18290;SDS011;9271;48.590;8.866;2023-02-26T14:41:20;2.27;;;2.07;;
18290;SDS011;9271;48.590;8.866;2023-02-26T14:43:55;1.20;;;1.20;;
18290;SDS011;9271;48.590;8.866;2023-02-26T14:46:26;1.23;;;1.03;;
18290;SDS011;9271;48.590;8.866;2023-02-26T14:48:53;1.30;;;1.20;;
18290;SDS011;9271;48.590;8.866;2023-02-26T14:51:22;0.80;;;0.80;;
18290;SDS011;9271;48.590;8.866;2023-02-26T14:54:04;1.00;;;1.00;;
18290;SDS011;9271;48.590;8.866;2023-02-26T14:56:51;1.20;;;1.10;;
18290;SDS011;9271;48.590;8.866;2023-02-26T14:59:30;0.90;;;0.90;;
18290;SDS011;9271;48.590;8.866;2023-02-26T15:02:17;1.07;;;0.97;;
18290;SDS011;9271;48.590;8.866;2023-02-26T15:10:52;1.10;;;1.00;;
18290;SDS011;9271;48.590;8.866;2023-02-26T15:13:34;3.47;;;1.10;;
18290;SDS011;9271;48.590;8.866;2023-02-26T15:16:13;3.50;;;1.20;;
18290;SDS011;9271;48.590;8.866;2023-02-26T15:21:50;1.30;;;1.20;;
18290;SDS011;9271;48.590;8.866;2023-02-26T15:24:31;1.40;;;1.30;;
18290;SDS011;9271;48.590;8.866;2023-02-26T15:26:59;1.10;;;1.00;;
18290;SDS011;9271;48.590;8.866;2023-02-26T15:29:28;1.67;;;1.10;;
18290;SDS011;9271;48.590;8.866;2023-02-26T15:31:59;1.10;;;1.00;;
18290;SDS011;9271;48.590;8.866;2023-02-26T15:34:30;0.70;;;0.70;;
18290;SDS011;9271;48.590;8.866;2023-02-26T15:36:58;1.77;;;1.67;;
18290;SDS011;9271;48.590;8.866;2023-02-26T15:39:26;1.57;;;1.47;;
18290;SDS011;9271;48.590;8.866;2023-02-26T15:41:53;0.80;;;0.80;;
18290;SDS011;9271;48.590;8.866;2023-02-26T15:44:22;1.37;;;1.00;;
18290;SDS011;9271;48.590;8.866;2023-02-26T15:46:53;2.70;;;1.20;;
18290;SDS011;9271;48.590;8.866;2023-02-26T15:49:24;1.20;;;1.10;;
18290;SDS011;9271;48.590;8.866;2023-02-26T15:51:54;1.83;;;1.50;;
18290;SDS011;9271;48.590;8.866;2023-02-26T15:54:23;2.00;;;1.80;;